»·PEaware :: N733TR KHQM-S23

N733TR :: KHQM-S23

FLIGHT INFORMATION

Flight Status: Arrived
Operator: Privately registered:
United States
More flights under this callsign
Pilot: Jonathan B. (787)
Aircraft: ECLIPSE 500
(EA50)
More flights by this aircraft type
Origin: KHQM Bowerman
United States
Destination: S23 Ione Mun
United States
More flights between these airports :: More routes between these airports
Route:
File this flight plan on PilotEdge
Remarks: wa alphabet
Altitude:
(Current/Filed)
17,500ft
Speed:
(Current/Filed)
320kts
Departed: 18-Aug-20 06:32 PM
Arrived: 18-Aug-20 07:31 PM
Distance/Time
Traveled:
283nm/0:59
Distance/Time
To Go:
Arrived

Flight Plot

Page will automatically refresh every two minutes.

Flight plan parsing failed; only flown route is shown


Map Options




Map Legend


Flown Route
Filed Route
Departure Airport
Arrival Airport
Navaid (VOR, NDB)
Fix

Horizontal Profiles

Position Reports

Time Latitude Longitude Heading Altitude Ground
Speed
18-Aug-20 18:30 46.970897 -123.946119 214 21ft 6kts
18-Aug-20 18:31 46.972828 -123.921158 82 660ft 166kts
18-Aug-20 18:32 46.981310 -123.841149 60 5264ft 212kts
18-Aug-20 18:33 47.003022 -123.784879 60 7812ft 218kts
18-Aug-20 18:34 47.034182 -123.706639 60 10832ft 229kts
18-Aug-20 18:35 47.067521 -123.625662 60 12915ft 238kts
18-Aug-20 18:36 47.102592 -123.540990 60 14717ft 247kts
18-Aug-20 18:37 47.138905 -123.453432 60 16337ft 256kts
18-Aug-20 18:38 47.176465 -123.362908 60 17594ft 265kts
18-Aug-20 18:39 47.216838 -123.265354 60 17609ft 289kts
18-Aug-20 18:40 47.256242 -123.159412 68 17609ft 302kts
18-Aug-20 18:41 47.290687 -123.044594 68 17612ft 309kts
18-Aug-20 18:42 47.324367 -122.927081 70 17620ft 314kts
18-Aug-20 18:43 47.357000 -122.807080 70 17625ft 317kts
18-Aug-20 18:44 47.389900 -122.685896 70 17623ft 319kts
18-Aug-20 18:45 47.422946 -122.564127 70 17623ft 320kts
18-Aug-20 18:46 47.456104 -122.441798 69 17621ft 321kts
18-Aug-20 18:47 47.489429 -122.318866 70 17609ft 322kts
18-Aug-20 18:48 47.522911 -122.195546 70 17602ft 324kts
18-Aug-20 18:49 47.556650 -122.071239 70 17600ft 325kts
18-Aug-20 18:50 47.590271 -121.947295 70 17601ft 325kts
18-Aug-20 18:51 47.624040 -121.822830 70 17601ft 326kts
18-Aug-20 18:52 47.657795 -121.698279 70 17602ft 326kts
18-Aug-20 18:53 47.691648 -121.573333 69 17604ft 326kts
18-Aug-20 18:54 47.725497 -121.448348 69 17613ft 326kts
18-Aug-20 18:55 47.759089 -121.324347 70 17600ft 327kts
18-Aug-20 18:56 47.793041 -121.199256 70 17601ft 327kts
18-Aug-20 18:57 47.827188 -121.073724 70 17544ft 327kts
18-Aug-20 18:58 47.861327 -120.948511 70 17444ft 326kts
18-Aug-20 18:59 47.895196 -120.824287 70 17438ft 323kts
18-Aug-20 19:00 47.928972 -120.700464 69 17438ft 321kts
18-Aug-20 19:01 47.962525 -120.577518 69 17439ft 320kts
18-Aug-20 19:02 47.996123 -120.454407 69 17439ft 320kts
18-Aug-20 19:03 48.029208 -120.333168 70 17438ft 320kts
18-Aug-20 19:04 48.062867 -120.210115 70 17438ft 319kts
18-Aug-20 19:05 48.096490 -120.087140 70 17438ft 319kts
18-Aug-20 19:06 48.129417 -119.966763 70 17434ft 319kts
18-Aug-20 19:07 48.163040 -119.843874 69 17434ft 318kts
18-Aug-20 19:08 48.196575 -119.721456 69 17435ft 318kts
18-Aug-20 19:09 48.230215 -119.598651 69 17435ft 318kts
18-Aug-20 19:10 48.263921 -119.475680 69 17436ft 318kts
18-Aug-20 19:11 48.297642 -119.352684 69 17436ft 319kts
18-Aug-20 19:12 48.331080 -119.231107 70 17434ft 318kts
18-Aug-20 19:13 48.364925 -119.108065 69 17435ft 318kts
18-Aug-20 19:14 48.398764 -118.985121 69 17435ft 318kts
18-Aug-20 19:15 48.432733 -118.861721 69 17435ft 319kts
18-Aug-20 19:16 48.466784 -118.737984 69 17436ft 320kts
18-Aug-20 19:17 48.500968 -118.613709 69 17437ft 321kts
18-Aug-20 19:18 48.535276 -118.489074 69 17454ft 321kts
18-Aug-20 19:19 48.569513 -118.364810 69 17484ft 321kts
18-Aug-20 19:20 48.603416 -118.242051 69 17486ft 322kts
18-Aug-20 19:21 48.636792 -118.121799 69 17454ft 266kts
18-Aug-20 19:22 48.640151 -118.019079 119 14365ft 250kts
18-Aug-20 19:23 48.603421 -117.928164 106 10863ft 247kts
18-Aug-20 19:24 48.612878 -117.827025 73 8222ft 228kts
18-Aug-20 19:25 48.629825 -117.728315 73 7703ft 264kts
18-Aug-20 19:26 48.660361 -117.627995 58 6484ft 247kts
18-Aug-20 19:27 48.684271 -117.541639 76 4983ft 191kts
18-Aug-20 19:28 48.678636 -117.465233 103 4862ft 161kts
18-Aug-20 19:29 48.685994 -117.408298 37 3068ft 121kts
18-Aug-20 19:30 48.712633 -117.414540 347 2110ft 40kts

Navigation Log

Ident Type
Flight plan parsing failed, navigation log unavailable